Observations for CRANFIELD, United Kingdom (EGTC)

EGTC 140820Z 24006KT 9999 BKN040 17/14 Q1015
EGTC 140750Z 26007KT 220V320 9999 BKN037 17/14 Q1015
EGTC 140720Z 24006KT 9999 BKN035 15/14 Q1015
EGTC 140650Z 24004KT 9999 BKN037 15/13 Q1015
EGTC 140620Z 24006KT 9999 BKN040 15/13 Q1015
EGTC 131650Z 29010KT 9999 SCT041 23/15 Q1007
EGTC 131620Z 29013KT 9999 FEW045 24/14 Q1007
EGTC 131550Z 28012KT 250V320 9999 SCT043 24/14 Q1007
EGTC 131520Z 28011KT 240V330 9999 SCT045 24/14 Q1007
EGTC 131450Z 28010KT 250V320 9999 FEW039 25/15 Q1006
EGTC 131420Z 27011KT 230V320 9999 FEW035 25/15 Q1006
EGTC 131350Z 27010KT 210V310 9999 FEW040 23/15 Q1006
EGTC 131320Z 28011KT 240V330 9999 SCT032 23/15 Q1006
EGTC 131250Z 28009KT 240V320 9999 SCT029 22/15 Q1006
EGTC 131220Z 29007KT 240V330 9999 SCT026 21/16 Q1006
EGTC 131150Z 30009KT 270V340 9999 SCT024 21/16 Q1006
EGTC 131120Z 29009KT 250V320 9999 FEW020 SCT035 21/16 Q1006 
EGTC 131050Z 30007KT 260V340 9999 FEW020 SCT033 20/16 Q1006 
EGTC 131020Z 31008KT 280V350 9999 FEW015 BKN030 19/16 Q1006 
EGTC 130950Z 30009KT 9999 SCT015 BKN025 18/16 Q1006 
EGTC 130920Z 29008KT 250V330 9999 BKN010 17/16 Q1006
EGTC 130850Z 27007KT 230V320 7000 SCT006 BKN020 18/16 Q1005 
EGTC 130820Z 27006KT 240V300 2500 BKN006 17/16 Q1005